createdAt,value
2022-09-26T00:02:40.719Z,4.28
2022-09-26T00:07:45.899Z,3.95
2022-09-26T00:12:49.595Z,4.22
2022-09-26T00:17:53.434Z,4.15
2022-09-26T00:22:58.498Z,4.65
2022-09-26T00:28:02.456Z,4.62
2022-09-26T00:33:06.104Z,4.72
2022-09-26T00:38:11.136Z,4.57
2022-09-26T00:43:29.977Z,5.53
2022-09-26T00:48:37.634Z,5.15
2022-09-26T00:53:48.035Z,5.00
2022-09-26T00:58:56.876Z,4.60
2022-09-26T01:04:02.654Z,4.22
2022-09-26T01:09:09.062Z,4.43
2022-09-26T01:14:14.234Z,3.95
2022-09-26T01:19:26.398Z,4.05
2022-09-26T01:24:48.504Z,3.37
2022-09-26T01:30:15.174Z,3.35
2022-09-26T01:35:36.738Z,3.92
2022-09-26T01:40:46.149Z,3.45
2022-09-26T01:45:55.180Z,2.83
2022-09-26T01:51:05.929Z,3.12
2022-09-26T01:56:14.530Z,2.60
2022-09-26T02:01:22.495Z,2.17
2022-09-26T02:06:33.859Z,2.83
2022-09-26T02:11:40.372Z,2.45
2022-09-26T02:16:49.339Z,2.20
2022-09-26T02:21:53.854Z,2.15
2022-09-26T02:26:57.816Z,2.50
2022-09-26T02:32:12.671Z,2.20
2022-09-26T02:37:17.516Z,2.37
2022-09-26T02:42:28.780Z,2.40
2022-09-26T02:47:48.877Z,2.08
2022-09-26T02:53:06.330Z,2.53
2022-09-26T03:03:24.578Z,1.85
2022-09-26T03:08:31.873Z,1.77
2022-09-26T03:13:38.184Z,1.80
2022-09-26T03:18:51.205Z,2.08
2022-09-26T03:23:56.275Z,2.22
2022-09-26T03:29:00.063Z,2.37
2022-09-26T03:34:05.457Z,2.05
2022-09-26T03:39:09.413Z,2.35
2022-09-26T03:44:14.128Z,2.33
2022-09-26T03:49:22.813Z,2.75
2022-09-26T03:54:26.679Z,1.95
2022-09-26T03:59:30.640Z,3.00
2022-09-26T04:04:35.744Z,1.87
2022-09-26T04:09:39.762Z,2.60
2022-09-26T04:14:44.366Z,2.30
2022-09-26T04:19:49.570Z,2.60
2022-09-26T04:24:53.508Z,2.25
2022-09-26T04:29:58.841Z,3.00
2022-09-26T04:35:04.340Z,2.40
2022-09-26T04:40:10.590Z,2.15
2022-09-26T04:45:15.394Z,2.83
2022-09-26T04:50:20.490Z,2.58
2022-09-26T04:55:38.080Z,2.53
2022-09-26T05:00:45.617Z,2.53
2022-09-26T05:05:51.492Z,2.50
2022-09-26T05:10:57.403Z,2.25
2022-09-26T05:16:02.890Z,2.70
2022-09-26T05:21:09.078Z,2.00
2022-09-26T05:26:20.874Z,2.90
2022-09-26T05:31:26.325Z,2.03
2022-09-26T05:36:31.822Z,2.33
2022-09-26T05:41:35.704Z,2.55
2022-09-26T05:46:40.715Z,2.85
2022-09-26T05:51:48.309Z,2.72
2022-09-26T05:56:53.354Z,2.65
2022-09-26T06:01:59.871Z,4.62
2022-09-26T06:07:05.826Z,2.95
2022-09-26T06:12:09.522Z,3.40
2022-09-26T06:17:13.428Z,3.90
2022-09-26T06:22:18.607Z,3.70
2022-09-26T06:27:25.383Z,4.12
2022-09-26T06:32:29.269Z,4.07
2022-09-26T06:37:36.795Z,5.07
2022-09-26T06:42:41.258Z,3.70
2022-09-26T06:47:47.453Z,3.97
2022-09-26T06:52:55.261Z,3.67
2022-09-26T06:58:00.420Z,3.40
2022-09-26T07:03:08.382Z,3.00
2022-09-26T07:08:16.958Z,2.97
2022-09-26T07:13:22.178Z,3.50
2022-09-26T07:18:26.053Z,3.12
2022-09-26T07:23:31.961Z,3.00
2022-09-26T07:28:36.734Z,3.80
2022-09-26T07:33:41.388Z,3.10
2022-09-26T07:38:50.420Z,3.15
2022-09-26T07:49:36.470Z,3.25
2022-09-26T07:54:46.547Z,3.42
2022-09-26T07:59:54.309Z,3.55
2022-09-26T08:05:01.103Z,2.87
2022-09-26T08:10:08.683Z,3.75
2022-09-26T08:15:14.461Z,2.47
2022-09-26T08:20:18.385Z,2.47
2022-09-26T08:25:24.011Z,2.95
2022-09-26T08:30:31.364Z,3.08
2022-09-26T08:35:38.630Z,3.08
2022-09-26T08:40:54.559Z,3.12
2022-09-26T08:46:33.039Z,2.65
2022-09-26T08:51:45.328Z,2.95
2022-09-26T08:56:58.471Z,3.47
2022-09-26T09:02:06.171Z,2.87
2022-09-26T09:07:21.800Z,3.15
2022-09-26T09:12:39.443Z,6.62
2022-09-26T09:18:09.942Z,3.50
2022-09-26T09:23:41.169Z,3.35
2022-09-26T09:29:10.336Z,4.03
2022-09-26T09:34:25.263Z,3.05
2022-09-26T09:39:37.632Z,4.18
2022-09-26T09:44:47.801Z,4.07
2022-09-26T09:49:53.047Z,3.85
2022-09-26T09:55:05.845Z,4.30
2022-09-26T10:00:16.622Z,3.90
2022-09-26T10:05:33.683Z,3.87
2022-09-26T10:10:42.268Z,3.58
2022-09-26T10:15:59.682Z,3.80
2022-09-26T10:21:13.338Z,4.22
2022-09-26T10:26:26.579Z,3.70
2022-09-26T10:31:42.300Z,4.05
2022-09-26T10:36:47.729Z,3.90
2022-09-26T10:41:59.146Z,3.47
2022-09-26T10:47:08.461Z,3.50
2022-09-26T10:52:20.541Z,3.70
2022-09-26T10:57:29.496Z,4.10
2022-09-26T11:02:36.241Z,3.40
2022-09-26T11:07:43.937Z,3.37
2022-09-26T11:13:02.416Z,3.55
2022-09-26T11:18:17.823Z,3.53
2022-09-26T11:23:32.860Z,3.60
2022-09-26T11:28:44.970Z,3.10
2022-09-26T11:33:51.450Z,3.42
2022-09-26T11:38:57.937Z,3.47
2022-09-26T11:44:17.847Z,3.28
2022-09-26T11:49:46.216Z,2.95
2022-09-26T11:55:04.293Z,3.10
2022-09-26T12:00:24.471Z,2.97
2022-09-26T12:05:40.537Z,3.50
2022-09-26T12:10:54.682Z,3.30
2022-09-26T12:16:09.374Z,3.12
2022-09-26T12:21:26.259Z,2.58
2022-09-26T12:26:39.836Z,3.00
2022-09-26T12:31:59.697Z,3.00
2022-09-26T12:37:15.707Z,3.40
2022-09-26T12:42:41.379Z,2.15
2022-09-26T12:48:05.136Z,2.30
2022-09-26T12:53:37.380Z,2.85
2022-09-26T12:58:58.651Z,2.28
2022-09-26T13:04:33.060Z,2.10
2022-09-26T13:09:53.071Z,2.80
2022-09-26T13:15:08.795Z,3.15
2022-09-26T13:20:18.843Z,2.35
2022-09-26T13:25:31.019Z,2.62
2022-09-26T13:30:37.387Z,2.20
2022-09-26T13:35:47.149Z,2.08
2022-09-26T13:41:02.062Z,2.08
2022-09-26T13:46:15.711Z,1.50
2022-09-26T13:51:25.736Z,1.83
2022-09-26T13:56:49.100Z,1.67
2022-09-26T14:02:23.612Z,3.97
2022-09-26T14:08:08.193Z,2.10
2022-09-26T14:13:33.021Z,2.58
2022-09-26T14:18:59.169Z,2.20
2022-09-26T14:24:31.617Z,1.60
2022-09-26T14:29:51.312Z,1.40
2022-09-26T14:34:59.232Z,1.90
2022-09-26T14:40:50.064Z,1.50
2022-09-26T14:46:04.226Z,1.30
2022-09-26T14:51:26.047Z,1.23
2022-09-26T14:56:42.013Z,1.00
2022-09-26T15:01:47.899Z,1.00
2022-09-26T15:06:56.545Z,1.08
2022-09-26T15:12:03.640Z,0.75
2022-09-26T15:17:17.756Z,0.80
2022-09-26T15:22:25.305Z,0.90
2022-09-26T15:27:29.986Z,1.77
2022-09-26T15:32:35.688Z,1.35
2022-09-26T15:37:39.647Z,2.45
2022-09-26T15:43:02.947Z,2.35
2022-09-26T15:48:27.865Z,3.40
2022-09-26T15:53:37.602Z,5.07
2022-09-26T15:58:46.574Z,4.12
2022-09-26T16:03:58.188Z,4.82
2022-09-26T16:09:18.086Z,4.75
2022-09-26T16:14:26.929Z,5.30
2022-09-26T16:19:35.232Z,4.70
2022-09-26T16:24:38.965Z,5.05
2022-09-26T16:29:42.655Z,6.00
2022-09-26T16:34:48.861Z,5.55
2022-09-26T16:39:59.363Z,5.05
2022-09-26T16:45:06.358Z,4.43
2022-09-26T16:50:27.594Z,5.10
2022-09-26T16:55:35.797Z,5.30
2022-09-26T17:00:58.651Z,5.07
2022-09-26T17:06:03.852Z,4.22
2022-09-26T17:11:15.321Z,4.70
2022-09-26T17:16:20.592Z,5.22
2022-09-26T17:21:25.769Z,6.90
2022-09-26T17:26:31.563Z,4.90
2022-09-26T17:31:35.445Z,4.18
2022-09-26T17:36:44.837Z,4.75
2022-09-26T17:41:49.164Z,4.12
2022-09-26T17:46:55.743Z,4.90
2022-09-26T17:52:03.468Z,5.93
2022-09-26T17:57:09.957Z,4.70
2022-09-26T18:02:23.486Z,5.93
2022-09-26T18:07:35.252Z,5.53
2022-09-26T18:12:39.353Z,4.37
2022-09-26T18:17:43.625Z,4.97
2022-09-26T18:22:50.455Z,3.45
2022-09-26T18:27:56.706Z,3.30
2022-09-26T18:33:00.561Z,3.42
2022-09-26T18:38:05.860Z,2.83
2022-09-26T18:43:12.284Z,2.83
2022-09-26T18:48:23.474Z,3.40
2022-09-26T18:53:37.208Z,3.05
2022-09-26T18:58:41.266Z,2.00
2022-09-26T19:03:48.352Z,1.95
2022-09-26T19:08:58.460Z,2.95
2022-09-26T19:14:12.472Z,2.25
2022-09-26T19:19:17.195Z,2.70
2022-09-26T19:24:28.952Z,3.62
2022-09-26T19:29:36.846Z,3.90
2022-09-26T19:34:49.321Z,3.50
2022-09-26T19:39:55.875Z,3.60
2022-09-26T19:44:59.664Z,2.78
2022-09-26T19:50:04.021Z,2.30
2022-09-26T19:55:14.641Z,2.03
2022-09-26T20:00:19.378Z,2.40
2022-09-26T20:05:24.897Z,2.60
2022-09-26T20:10:29.928Z,2.47
2022-09-26T20:15:33.815Z,2.42
2022-09-26T20:20:38.233Z,2.80
2022-09-26T20:25:43.332Z,1.67
2022-09-26T20:30:54.006Z,1.45
2022-09-26T20:36:03.652Z,1.37
2022-09-26T20:41:13.870Z,1.73
2022-09-26T20:46:20.606Z,2.20
2022-09-26T20:51:27.829Z,0.82
2022-09-26T20:56:33.275Z,1.35
2022-09-26T21:01:37.114Z,1.42
2022-09-26T21:06:41.276Z,1.70
2022-09-26T21:11:48.139Z,1.50
2022-09-26T21:16:53.583Z,1.62
2022-09-26T21:21:57.708Z,1.23
2022-09-26T21:27:02.836Z,1.58
2022-09-26T21:32:09.187Z,1.48
2022-09-26T21:37:12.941Z,1.23
2022-09-26T21:42:18.036Z,2.20
2022-09-26T21:47:21.970Z,1.77
2022-09-26T21:52:29.497Z,2.70
2022-09-26T21:57:38.509Z,1.52
2022-09-26T22:02:42.447Z,1.73
2022-09-26T22:07:46.167Z,1.55
2022-09-26T22:12:52.312Z,1.50
2022-09-26T22:17:56.246Z,1.65
2022-09-26T22:22:59.922Z,1.40
2022-09-26T22:28:04.996Z,1.35
2022-09-26T22:33:08.693Z,1.30
2022-09-26T22:38:12.595Z,1.70
2022-09-26T22:43:17.576Z,1.42
2022-09-26T22:48:21.539Z,1.23
2022-09-26T22:53:25.235Z,1.70
2022-09-26T22:58:30.437Z,1.52
2022-09-26T23:03:34.404Z,1.50
2022-09-26T23:08:38.754Z,1.98
2022-09-26T23:13:43.777Z,1.87
2022-09-26T23:18:47.959Z,1.60
2022-09-26T23:23:53.351Z,1.85
2022-09-26T23:28:59.748Z,1.50
2022-09-26T23:34:03.581Z,1.90
2022-09-26T23:39:07.516Z,1.58
2022-09-26T23:44:12.551Z,1.70
2022-09-26T23:49:16.256Z,1.30
2022-09-26T23:54:20.100Z,1.75
2022-09-26T23:59:25.394Z,1.17
